Time;durP1;ratioP1;P1;durP2;ratioP2;P2;SDS_P1;SDS_P2;PMS_P1;PMS_P2;Temp;Humidity;BMP_temperature;BMP_pressure;BME280_temperature;BME280_humidity;BME280_pressure;Samples;Min_cycle;Max_cycle;Signal;HPM_P1;HPM_P2
2022/03/05 00:00:03;;;;;;;20.17;8.70;;;1.40;99.90;;;;;;5055422;28;20280;-84
2022/03/05 00:02:29;;;;;;;21.33;9.23;;;0.90;99.90;;;;;;5055272;28;20178;-88
2022/03/05 00:04:54;;;;;;;16.40;8.23;;;2.90;99.90;;;;;;5055134;28;20206;-86
2022/03/05 00:07:20;;;;;;;18.13;8.77;;;0.90;99.90;;;;;;5055265;28;20208;-83
2022/03/05 00:09:46;;;;;;;17.30;8.90;;;2.10;99.90;;;;;;5055387;28;20181;-84
2022/03/05 00:12:12;;;;;;;22.47;9.27;;;2.10;99.90;;;;;;5054407;28;20187;-84
2022/03/05 00:14:37;;;;;;;21.10;9.97;;;0.90;99.90;;;;;;5036684;28;20539;-83
2022/03/05 00:17:03;;;;;;;34.50;12.47;;;0.90;99.90;;;;;;5037366;28;20222;-84
2022/03/05 00:19:29;;;;;;;35.60;12.07;;;1.40;99.90;;;;;;5036972;28;20219;-86
2022/03/05 00:21:57;;;;;;;25.37;11.07;;;0.90;99.90;;;;;;5037012;28;20180;-84
2022/03/05 00:24:23;;;;;;;29.60;10.23;;;2.40;99.90;;;;;;5054822;28;20176;-84
2022/03/05 00:26:48;;;;;;;29.90;10.70;;;0.80;99.90;;;;;;5054709;28;20187;-84
2022/03/05 00:29:14;;;;;;;27.27;9.83;;;1.80;99.90;;;;;;5037186;28;20176;-86
2022/03/05 00:31:40;;;;;;;26.40;9.87;;;1.50;99.90;;;;;;5054887;28;20507;-86
2022/03/05 00:34:05;;;;;;;31.10;11.00;;;1.00;99.90;;;;;;5036882;28;20580;-86
2022/03/05 00:36:31;;;;;;;27.10;9.70;;;1.40;99.90;;;;;;5036804;28;20595;-85
2022/03/05 00:38:57;;;;;;;27.23;11.17;;;1.30;99.90;;;;;;5036753;28;20216;-85
2022/03/05 00:41:22;;;;;;;23.93;10.53;;;0.80;99.90;;;;;;5037035;28;20665;-85
2022/03/05 00:43:48;;;;;;;24.27;9.90;;;0.70;99.90;;;;;;5036983;28;20179;-85
2022/03/05 00:46:13;;;;;;;20.37;9.60;;;1.30;99.90;;;;;;5020786;28;20254;-86
2022/03/05 00:48:40;;;;;;;21.00;10.33;;;1.30;99.90;;;;;;5036939;28;20186;-86
2022/03/05 00:51:06;;;;;;;17.70;8.30;;;0.70;99.90;;;;;;5055055;28;20278;-83
2022/03/05 00:53:31;;;;;;;16.83;8.80;;;2.70;99.90;;;;;;5036036;28;20750;-85
2022/03/05 00:55:57;;;;;;;17.10;8.57;;;0.70;99.90;;;;;;5036388;28;20533;-85
2022/03/05 00:58:23;;;;;;;33.73;11.50;;;0.60;99.90;;;;;;5036386;28;20634;-85
2022/03/05 01:00:48;;;;;;;22.27;10.00;;;1.60;99.90;;;;;;5021391;28;20257;-85
2022/03/05 01:03:14;;;;;;;19.87;8.83;;;0.60;99.90;;;;;;5041099;28;20188;-85
2022/03/05 01:05:40;;;;;;;23.27;9.57;;;1.00;99.90;;;;;;5040868;28;20180;-84
2022/03/05 01:08:05;;;;;;;23.37;9.50;;;0.90;99.90;;;;;;5041026;28;20187;-84
2022/03/05 01:10:31;;;;;;;16.77;8.40;;;0.50;99.90;;;;;;5059936;28;20200;-84
2022/03/05 01:12:57;;;;;;;17.27;7.77;;;2.30;99.90;;;;;;5053996;28;20183;-84
2022/03/05 01:15:22;;;;;;;19.30;8.20;;;0.80;99.90;;;;;;5054064;28;20202;-84
2022/03/05 01:17:48;;;;;;;16.53;7.87;;;0.60;99.90;;;;;;5053154;28;20244;-84
2022/03/05 01:20:14;;;;;;;22.63;9.63;;;2.00;99.90;;;;;;5034978;28;20212;-84
2022/03/05 01:22:39;;;;;;;21.37;9.70;;;0.70;99.90;;;;;;5045542;28;20215;-86
2022/03/05 01:25:05;;;;;;;19.80;9.03;;;2.00;99.90;;;;;;5018732;28;20188;-84
2022/03/05 01:27:31;;;;;;;22.57;10.20;;;0.60;99.90;;;;;;5053797;28;20183;-84
2022/03/05 01:29:57;;;;;;;19.77;8.77;;;0.70;99.90;;;;;;5035610;28;20187;-84
2022/03/05 01:32:22;;;;;;;18.97;9.23;;;1.00;99.90;;;;;;5035842;28;20194;-84
2022/03/05 01:34:48;;;;;;;17.73;8.87;;;0.60;99.90;;;;;;5035784;28;20264;-84
2022/03/05 01:37:14;;;;;;;17.67;9.57;;;2.00;99.90;;;;;;5035859;28;20206;-84
2022/03/05 01:39:41;;;;;;;19.50;9.53;;;0.60;99.90;;;;;;5035772;28;20232;-84
2022/03/05 01:42:07;;;;;;;17.57;8.90;;;1.10;99.90;;;;;;5035995;28;20230;-84
2022/03/05 01:44:33;;;;;;;21.03;10.60;;;0.60;99.90;;;;;;5053475;28;20274;-84
2022/03/05 01:47:03;;;;;;;19.40;10.37;;;0.70;99.90;;;;;;5035181;28;20341;-84
2022/03/05 01:49:32;;;;;;;18.70;8.90;;;0.70;99.90;;;;;;5035609;28;20717;-84
2022/03/05 01:51:58;;;;;;;17.53;9.40;;;2.40;99.90;;;;;;5035399;28;20183;-85
2022/03/05 01:54:25;;;;;;;14.33;8.47;;;1.40;99.90;;;;;;5031675;28;20235;-84
2022/03/05 01:56:51;;;;;;;23.97;10.10;;;1.40;99.90;;;;;;5015806;28;20501;-84
2022/03/05 01:59:17;;;;;;;23.07;10.07;;;0.60;99.90;;;;;;5033486;28;20185;-85
2022/03/05 02:01:43;;;;;;;20.97;9.17;;;0.60;99.90;;;;;;5033313;28;20271;-85
2022/03/05 02:04:08;;;;;;;17.00;9.13;;;0.80;99.90;;;;;;4999222;28;20276;-84
2022/03/05 02:06:34;;;;;;;16.97;8.53;;;0.60;99.90;;;;;;5015724;28;20210;-84
2022/03/05 02:09:01;;;;;;;24.50;10.67;;;0.60;99.90;;;;;;5033207;28;20648;-85
2022/03/05 02:11:26;;;;;;;19.57;10.17;;;1.40;99.90;;;;;;5033317;28;20230;-85
2022/03/05 02:13:53;;;;;;;18.87;9.90;;;0.60;99.90;;;;;;5031637;28;20187;-85
2022/03/05 02:16:19;;;;;;;22.37;10.17;;;;;;;;;;5031939;28;20180;-85
2022/03/05 02:18:51;;;;;;;18.40;9.43;;;0.60;99.90;;;;;;5015782;28;20184;-85
2022/03/05 02:21:17;;;;;;;15.60;9.03;;;0.60;99.90;;;;;;5032215;28;20687;-85
2022/03/05 02:23:44;;;;;;;16.43;8.10;;;0.60;99.90;;;;;;5033193;28;20188;-85
2022/03/05 02:26:10;;;;;;;18.83;8.87;;;0.60;99.90;;;;;;5031791;28;20191;-85
2022/03/05 02:28:37;;;;;;;17.17;8.93;;;0.60;99.90;;;;;;5031874;28;20191;-85
2022/03/05 02:31:04;;;;;;;18.23;9.83;;;0.60;99.90;;;;;;5033246;28;20191;-85
2022/03/05 02:33:30;;;;;;;14.80;7.80;;;0.60;99.90;;;;;;5033041;28;20200;-84
2022/03/05 02:35:55;;;;;;;18.33;9.53;;;0.50;99.90;;;;;;5034835;28;20643;-84
2022/03/05 02:38:23;;;;;;;16.40;8.33;;;0.50;99.90;;;;;;5036937;28;20628;-84
2022/03/05 02:40:49;;;;;;;13.63;7.90;;;0.50;99.90;;;;;;5036764;28;20211;-85
2022/03/05 02:43:16;;;;;;;16.27;8.73;;;1.50;99.90;;;;;;5035763;28;20299;-84
2022/03/05 02:45:42;;;;;;;17.33;8.60;;;0.50;99.90;;;;;;5035663;28;20762;-84
2022/03/05 02:48:11;;;;;;;18.53;7.80;;;0.70;99.90;;;;;;5036676;28;20187;-85
2022/03/05 02:50:37;;;;;;;17.83;8.57;;;1.80;99.90;;;;;;5036736;28;20181;-84
2022/03/05 02:53:03;;;;;;;20.83;7.77;;;2.00;99.90;;;;;;5035112;28;20689;-84
2022/03/05 02:55:28;;;;;;;16.27;8.87;;;0.40;99.90;;;;;;5035293;28;20175;-85
2022/03/05 02:57:54;;;;;;;16.63;8.57;;;1.90;99.90;;;;;;5038223;28;20191;-84
2022/03/05 03:00:20;;;;;;;17.40;8.27;;;0.40;99.90;;;;;;5008939;28;20213;-84
2022/03/05 03:02:46;;;;;;;15.43;8.50;;;0.40;99.90;;;;;;5036450;28;20188;-85
2022/03/05 03:05:16;;;;;;;13.17;8.43;;;0.40;99.90;;;;;;5034905;28;20187;-85
2022/03/05 03:07:42;;;;;;;14.30;8.40;;;0.40;99.90;;;;;;5035202;28;20631;-85
2022/03/05 03:10:09;;;;;;;15.27;8.00;;;1.60;99.90;;;;;;5036189;28;20185;-84
2022/03/05 03:12:35;;;;;;;15.30;8.47;;;0.40;99.90;;;;;;5034790;28;20173;-85
2022/03/05 03:15:01;;;;;;;15.70;8.23;;;0.50;99.90;;;;;;5036119;28;20180;-85
2022/03/05 03:17:27;;;;;;;15.83;9.13;;;1.60;99.90;;;;;;5035896;28;20173;-85
2022/03/05 03:19:53;;;;;;;15.70;8.77;;;0.40;99.90;;;;;;5018433;28;20213;-84
2022/03/05 03:22:19;;;;;;;15.20;8.33;;;0.80;99.90;;;;;;5036535;28;20251;-85
2022/03/05 03:24:44;;;;;;;15.90;8.80;;;2.00;99.90;;;;;;5036237;28;20188;-85
2022/03/05 03:27:10;;;;;;;18.10;9.47;;;0.70;99.90;;;;;;5036273;28;20507;-85
2022/03/05 03:29:36;;;;;;;13.47;8.40;;;1.30;99.90;;;;;;5036098;28;20278;-85
2022/03/05 03:32:02;;;;;;;20.23;9.27;;;1.90;99.90;;;;;;5034505;28;20190;-85
2022/03/05 03:34:27;;;;;;;16.50;8.67;;;0.30;99.90;;;;;;5034585;28;20184;-85
2022/03/05 03:36:53;;;;;;;14.00;8.20;;;1.90;99.90;;;;;;5034535;28;20188;-84
2022/03/05 03:39:19;;;;;;;14.20;7.43;;;0.30;99.90;;;;;;5017707;28;20276;-84
2022/03/05 03:41:44;;;;;;;15.13;7.20;;;0.30;99.90;;;;;;5035809;28;20195;-85
2022/03/05 03:44:10;;;;;;;15.40;7.63;;;0.30;99.90;;;;;;5034214;28;20541;-85
2022/03/05 03:46:36;;;;;;;16.13;7.83;;;0.50;99.90;;;;;;5034845;28;20169;-85
2022/03/05 03:49:03;;;;;;;15.30;8.27;;;1.00;99.90;;;;;;5033877;28;20192;-85
2022/03/05 03:51:28;;;;;;;13.43;7.97;;;0.30;99.90;;;;;;5034807;28;20184;-84
2022/03/05 03:53:54;;;;;;;15.20;8.10;;;1.20;99.90;;;;;;5048662;28;20745;-84
2022/03/05 03:56:20;;;;;;;14.10;7.43;;;0.30;99.90;;;;;;5037278;28;20609;-84
2022/03/05 03:58:45;;;;;;;12.30;7.37;;;1.20;99.90;;;;;;5055670;28;20218;-84
2022/03/05 04:01:11;;;;;;;10.77;6.63;;;1.30;99.90;;;;;;5055102;28;20572;-84
2022/03/05 04:03:36;;;;;;;15.03;7.90;;;2.10;99.90;;;;;;5055315;28;20633;-84
2022/03/05 04:06:03;;;;;;;14.00;7.57;;;0.40;99.90;;;;;;5055234;28;20222;-84
2022/03/05 04:08:41;;;;;;;16.47;7.40;;;0.30;99.90;;;;;;5055414;28;20310;-85
2022/03/05 04:11:11;;;;;;;12.83;7.47;;;0.30;99.90;;;;;;5022486;28;20195;-84
2022/03/05 04:13:37;;;;;;;16.23;7.60;;;0.30;99.90;;;;;;5037174;28;20638;-84
2022/03/05 04:16:04;;;;;;;14.70;7.43;;;0.40;99.90;;;;;;5036992;28;20222;-86
2022/03/05 04:18:29;;;;;;;14.57;8.30;;;0.30;99.90;;;;;;5055314;28;20249;-84
2022/03/05 04:20:55;;;;;;;15.13;7.37;;;1.50;99.90;;;;;;5037220;28;20672;-83
2022/03/05 04:23:21;;;;;;;16.87;8.10;;;0.30;99.90;;;;;;5055010;28;20190;-84
2022/03/05 04:25:46;;;;;;;15.07;8.07;;;0.30;99.90;;;;;;5054546;28;20562;-84
2022/03/05 04:28:12;;;;;;;14.90;7.77;;;2.00;99.90;;;;;;5036951;28;20184;-84
2022/03/05 04:30:38;;;;;;;13.87;8.07;;;2.00;99.90;;;;;;5037252;28;20194;-84
2022/03/05 04:33:04;;;;;;;18.40;8.90;;;0.30;99.90;;;;;;5020276;28;20487;-85
2022/03/05 04:35:29;;;;;;;14.53;8.20;;;0.30;99.90;;;;;;5054897;28;20179;-83
2022/03/05 04:37:56;;;;;;;17.57;10.27;;;1.60;99.90;;;;;;5036646;28;20198;-84
2022/03/05 04:40:22;;;;;;;13.23;7.83;;;0.30;99.90;;;;;;5054528;28;20216;-84
2022/03/05 04:42:48;;;;;;;11.40;7.70;;;;;;;;;;5036579;28;20590;-84
2022/03/05 04:45:14;;;;;;;16.90;8.50;;;0.30;99.90;;;;;;5054308;28;20247;-84
2022/03/05 04:47:40;;;;;;;18.83;11.37;;;1.80;99.90;;;;;;5054543;28;20172;-84
2022/03/05 04:50:08;;;;;;;21.27;13.00;;;0.30;99.90;;;;;;5036489;28;20203;-85
2022/03/05 04:52:34;;;;;;;47.93;26.47;;;0.30;99.90;;;;;;5036570;28;20279;-84
2022/03/05 04:55:00;;;;;;;62.17;34.93;;;0.50;99.90;;;;;;5036508;28;20591;-84
2022/03/05 04:57:26;;;;;;;30.37;16.77;;;1.90;99.90;;;;;;5036408;28;20188;-84
2022/03/05 04:59:52;;;;;;;15.03;9.47;;;0.30;99.90;;;;;;5036513;28;20221;-85
2022/03/05 05:02:17;;;;;;;14.00;8.00;;;0.90;99.90;;;;;;5054018;28;20180;-84
2022/03/05 05:04:43;;;;;;;23.23;14.67;;;0.30;99.90;;;;;;5053954;28;20182;-85
2022/03/05 05:07:09;;;;;;;32.27;17.87;;;2.10;99.90;;;;;;5036255;28;20274;-86
2022/03/05 05:09:35;;;;;;;20.47;10.97;;;1.10;99.90;;;;;;5003422;28;20630;-85
2022/03/05 05:12:00;;;;;;;20.90;9.40;;;0.30;99.90;;;;;;5036576;28;20566;-84
2022/03/05 05:14:26;;;;;;;17.70;9.97;;;0.20;99.90;;;;;;5036577;28;20182;-86
2022/03/05 05:16:52;;;;;;;16.67;9.57;;;0.80;99.90;;;;;;5054866;28;20180;-83
2022/03/05 05:19:30;;;;;;;15.23;9.00;;;0.80;99.90;;;;;;5054461;28;20184;-85
2022/03/05 05:21:58;;;;;;;20.70;9.40;;;0.80;99.90;;;;;;5038078;28;20601;-85
2022/03/05 05:24:25;;;;;;;22.80;9.43;;;0.40;99.90;;;;;;5054946;28;20174;-84
2022/03/05 05:26:52;;;;;;;14.90;7.50;;;0.20;99.90;;;;;;5039777;28;20180;-85
2022/03/05 05:29:18;;;;;;;13.27;7.40;;;2.50;99.90;;;;;;5035614;28;20696;-85
2022/03/05 05:31:43;;;;;;;13.97;7.53;;;0.20;99.90;;;;;;5035973;28;20263;-86
2022/03/05 05:34:09;;;;;;;12.63;7.70;;;1.20;99.90;;;;;;5035759;28;20187;-86
2022/03/05 05:36:38;;;;;;;15.07;6.80;;;;;;;;;;5019261;28;20538;-85
2022/03/05 05:39:05;;;;;;;13.90;7.90;;;0.20;99.90;;;;;;5035833;28;20525;-85
2022/03/05 05:41:31;;;;;;;10.43;6.60;;;-0.30;99.90;;;;;;5053609;28;20211;-85
2022/03/05 05:43:57;;;;;;;16.00;7.87;;;0.20;99.90;;;;;;5036021;28;20205;-85
2022/03/05 05:46:22;;;;;;;21.73;9.70;;;0.20;99.90;;;;;;5035620;28;20193;-85
2022/03/05 05:48:48;;;;;;;22.40;11.90;;;1.20;99.90;;;;;;5053598;28;20625;-85
2022/03/05 05:51:14;;;;;;;21.97;12.00;;;0.20;99.90;;;;;;5053337;28;20196;-85
2022/03/05 05:53:39;;;;;;;21.07;11.53;;;0.20;99.90;;;;;;5026679;28;20638;-85
2022/03/05 05:56:05;;;;;;;21.60;10.03;;;0.20;99.90;;;;;;5016685;28;20185;-85
2022/03/05 05:58:30;;;;;;;18.17;9.57;;;1.10;99.90;;;;;;4996451;28;20184;-85
2022/03/05 06:00:56;;;;;;;20.93;10.77;;;1.50;99.90;;;;;;5011839;28;20208;-85
2022/03/05 06:03:22;;;;;;;19.93;11.03;;;0.20;99.90;;;;;;4999092;28;20181;-85
2022/03/05 06:05:47;;;;;;;16.97;9.73;;;1.20;99.90;;;;;;5021740;28;20188;-85
2022/03/05 06:08:13;;;;;;;23.70;10.93;;;0.70;99.90;;;;;;5014507;28;20555;-85
2022/03/05 06:10:39;;;;;;;24.60;10.27;;;1.20;99.90;;;;;;5020478;28;20189;-85
2022/03/05 06:13:04;;;;;;;21.53;10.33;;;1.10;99.90;;;;;;5029465;28;20282;-85
2022/03/05 06:15:30;;;;;;;19.10;10.80;;;1.40;99.90;;;;;;5020543;28;20221;-85
2022/03/05 06:17:57;;;;;;;16.67;9.83;;;2.50;99.90;;;;;;5000117;28;20686;-85
2022/03/05 06:20:24;;;;;;;14.97;8.93;;;2.20;99.90;;;;;;4999469;28;20217;-85
2022/03/05 06:22:49;;;;;;;13.90;8.00;;;1.20;99.90;;;;;;5017260;28;20177;-85
2022/03/05 06:25:17;;;;;;;14.53;8.03;;;1.70;99.90;;;;;;5017370;28;20187;-85
2022/03/05 06:27:43;;;;;;;16.47;8.00;;;1.30;99.90;;;;;;5016132;28;20196;-84
2022/03/05 06:30:11;;;;;;;15.37;8.80;;;1.80;99.90;;;;;;5015911;28;20646;-86
2022/03/05 06:32:37;;;;;;;16.17;9.40;;;0.20;99.90;;;;;;5016931;28;20185;-87
2022/03/05 06:35:05;;;;;;;18.13;9.97;;;0.30;99.90;;;;;;5015984;28;20185;-86
2022/03/05 06:37:31;;;;;;;19.37;10.97;;;0.30;99.90;;;;;;5015944;28;20189;-87
2022/03/05 06:39:57;;;;;;;23.77;11.27;;;0.30;99.90;;;;;;5017050;28;20748;-86
2022/03/05 06:42:23;;;;;;;19.47;10.60;;;0.10;99.90;;;;;;5027488;28;20188;-86
2022/03/05 06:44:50;;;;;;;21.00;10.77;;;2.70;99.90;;;;;;5013078;28;20183;-86
2022/03/05 06:47:16;;;;;;;17.33;8.97;;;0.30;99.90;;;;;;5020988;28;20184;-88
2022/03/05 06:49:42;;;;;;;27.20;12.33;;;2.50;99.90;;;;;;5016224;28;20269;-85
2022/03/05 06:52:10;;;;;;;15.77;8.87;;;2.10;99.90;;;;;;5025907;28;20628;-87
2022/03/05 06:54:36;;;;;;;16.33;8.13;;;0.30;99.90;;;;;;5052851;28;20215;-87
2022/03/05 06:57:02;;;;;;;14.60;7.40;;;2.60;99.90;;;;;;5036207;28;20233;-88
2022/03/05 06:59:27;;;;;;;14.40;8.23;;;0.30;99.90;;;;;;5001792;28;20177;-89
2022/03/05 07:01:53;;;;;;;47.40;18.27;;;0.40;99.90;;;;;;5026793;28;20172;-88
2022/03/05 07:04:19;;;;;;;27.20;11.13;;;1.00;99.90;;;;;;5007933;28;20207;-87
2022/03/05 07:06:44;;;;;;;25.47;10.93;;;1.40;99.90;;;;;;5028868;28;20640;-86
2022/03/05 07:09:10;;;;;;;17.87;9.80;;;0.40;99.90;;;;;;5026135;28;20177;-87
2022/03/05 07:11:36;;;;;;;15.60;7.80;;;0.70;99.90;;;;;;5021043;28;20184;-87
2022/03/05 07:14:02;;;;;;;32.60;11.60;;;0.30;99.90;;;;;;5046117;28;20188;-85
2022/03/05 07:16:27;;;;;;;57.03;18.03;;;0.80;99.90;;;;;;4993856;28;20183;-87
2022/03/05 07:18:53;;;;;;;94.23;27.33;;;1.10;99.90;;;;;;5036774;28;20182;-86
2022/03/05 07:21:19;;;;;;;131.80;32.77;;;0.80;99.90;;;;;;5049241;28;20222;-87
2022/03/05 07:23:45;;;;;;;108.33;27.30;;;2.20;99.90;;;;;;5036207;28;20196;-87
2022/03/05 07:26:10;;;;;;;159.03;37.00;;;1.80;99.90;;;;;;5031536;28;20633;-86
2022/03/05 07:28:36;;;;;;;90.37;24.17;;;0.50;99.90;;;;;;5055211;28;20188;-88
2022/03/05 07:31:02;;;;;;;56.23;16.87;;;0.50;99.90;;;;;;5040235;28;20266;-86
2022/03/05 07:33:28;;;;;;;33.73;12.87;;;1.20;99.90;;;;;;5046394;28;20187;-86
2022/03/05 07:35:54;;;;;;;72.13;22.37;;;3.00;99.90;;;;;;5016820;28;20250;-86
2022/03/05 07:38:20;;;;;;;78.27;22.67;;;0.60;99.90;;;;;;5052967;28;20199;-86
2022/03/05 07:40:46;;;;;;;116.47;31.57;;;0.90;99.90;;;;;;5035848;28;20211;-86
2022/03/05 07:43:12;;;;;;;82.27;24.73;;;2.20;99.90;;;;;;5054253;28;20202;-86
2022/03/05 07:45:38;;;;;;;62.03;19.70;;;0.60;99.90;;;;;;5034937;28;20281;-88
2022/03/05 07:48:04;;;;;;;138.73;38.90;;;0.60;99.90;;;;;;5023558;28;20671;-86
2022/03/05 07:50:30;;;;;;;117.80;32.57;;;0.60;99.90;;;;;;5058913;28;20216;-83
2022/03/05 07:52:56;;;;;;;25.73;11.40;;;0.70;99.90;;;;;;5054562;28;20294;-84
2022/03/05 07:55:22;;;;;;;93.03;25.27;;;0.60;99.90;;;;;;5036907;28;20196;-85
2022/03/05 07:57:48;;;;;;;62.07;18.47;;;0.60;99.90;;;;;;5061260;28;20267;-88
2022/03/05 08:00:14;;;;;;;78.07;20.77;;;1.40;99.90;;;;;;5070659;28;20231;-86
2022/03/05 08:02:41;;;;;;;96.63;23.37;;;0.60;99.90;;;;;;5069618;28;20192;-89
2022/03/05 08:05:07;;;;;;;69.97;17.80;;;1.80;99.90;;;;;;5054338;28;20184;-87
2022/03/05 08:07:32;;;;;;;246.47;49.53;;;0.60;99.90;;;;;;5058841;28;20200;-85
2022/03/05 08:09:58;;;;;;;50.77;14.53;;;0.50;99.90;;;;;;5029999;28;20647;-86
2022/03/05 08:12:24;;;;;;;104.60;22.30;;;1.80;99.90;;;;;;5043189;28;20271;-88
2022/03/05 08:14:49;;;;;;;80.67;18.43;;;2.00;99.90;;;;;;5037497;28;20665;-87
2022/03/05 08:17:15;;;;;;;120.80;26.80;;;0.70;99.90;;;;;;5036998;28;20715;-88
2022/03/05 08:19:41;;;;;;;132.50;24.27;;;2.00;99.90;;;;;;5018569;28;20761;-89
2022/03/05 08:22:07;;;;;;;61.27;17.77;;;0.60;99.90;;;;;;5036611;28;20195;-86
2022/03/05 08:24:33;;;;;;;134.50;31.10;;;0.60;99.90;;;;;;5013368;28;20195;-87
2022/03/05 08:26:59;;;;;;;84.50;20.83;;;1.20;99.90;;;;;;5033889;28;20660;-86
2022/03/05 08:29:24;;;;;;;95.47;26.23;;;0.80;99.90;;;;;;5028444;28;20246;-85
2022/03/05 08:31:50;;;;;;;145.27;36.03;;;0.70;99.90;;;;;;5031653;28;20191;-84
2022/03/05 08:34:16;;;;;;;159.83;44.63;;;0.70;99.90;;;;;;5050174;28;20238;-85
2022/03/05 08:36:42;;;;;;;212.37;56.47;;;0.70;99.90;;;;;;5046608;28;20221;-87
2022/03/05 08:39:08;;;;;;;125.67;37.00;;;1.90;99.90;;;;;;5033195;28;20267;-82
2022/03/05 08:41:34;;;;;;;121.23;35.37;;;2.00;99.90;;;;;;5017136;28;20216;-83
2022/03/05 08:44:00;;;;;;;88.07;28.90;;;0.80;99.90;;;;;;5033703;28;20191;-84
2022/03/05 08:46:25;;;;;;;59.57;26.03;;;1.60;99.90;;;;;;5034086;28;20183;-85
2022/03/05 08:48:51;;;;;;;27.73;12.70;;;1.10;99.90;;;;;;5051362;28;20196;-84
2022/03/05 08:51:17;;;;;;;40.00;16.50;;;0.90;99.90;;;;;;5050968;28;20545;-84
2022/03/05 08:53:43;;;;;;;54.20;24.97;;;1.10;99.90;;;;;;5053455;28;20726;-85
2022/03/05 08:56:08;;;;;;;53.10;19.17;;;1.00;99.90;;;;;;5037360;28;20186;-84
2022/03/05 08:58:34;;;;;;;45.63;18.83;;;1.00;99.90;;;;;;5054940;28;20183;-86
2022/03/05 09:01:01;;;;;;;17.13;8.70;;;3.10;99.90;;;;;;5004156;28;20211;-86
2022/03/05 09:03:27;;;;;;;28.23;13.87;;;1.00;99.90;;;;;;5052382;28;20183;-85
2022/03/05 09:05:53;;;;;;;27.57;13.07;;;2.40;99.90;;;;;;5038108;28;20529;-84
2022/03/05 09:08:19;;;;;;;24.97;11.83;;;2.80;99.90;;;;;;5041509;28;20184;-86
2022/03/05 09:10:46;;;;;;;45.50;17.47;;;2.70;99.90;;;;;;5047623;28;20279;-85
2022/03/05 09:13:11;;;;;;;65.00;22.43;;;1.00;99.90;;;;;;5043543;28;20238;-85
2022/03/05 09:15:37;;;;;;;65.17;24.93;;;1.10;99.90;;;;;;5018826;28;20191;-86
2022/03/05 09:18:04;;;;;;;21.83;11.57;;;1.20;99.90;;;;;;5046525;28;20202;-86
2022/03/05 09:20:30;;;;;;;24.97;10.90;;;1.30;99.90;;;;;;5025765;28;20216;-85
2022/03/05 09:22:56;;;;;;;21.87;8.13;;;1.60;99.90;;;;;;5031220;28;20187;-86
2022/03/05 09:25:22;;;;;;;24.00;11.47;;;1.20;99.90;;;;;;5019355;28;20192;-86
2022/03/05 09:27:48;;;;;;;23.57;12.03;;;1.10;99.90;;;;;;5031327;28;20195;-89
2022/03/05 09:30:13;;;;;;;23.23;10.50;;;2.00;99.90;;;;;;5040926;28;20201;-88
2022/03/05 09:32:39;;;;;;;24.70;11.83;;;1.10;99.90;;;;;;5044046;28;20181;-88
2022/03/05 09:35:05;;;;;;;18.73;8.63;;;1.20;99.90;;;;;;5035311;28;20274;-91
2022/03/05 09:37:33;;;;;;;14.53;8.30;;;1.20;99.90;;;;;;5022281;28;20199;-88
2022/03/05 09:39:59;;;;;;;16.10;8.23;;;1.20;99.90;;;;;;5052228;28;20215;-89
2022/03/05 09:42:26;;;;;;;26.77;13.87;;;1.20;99.90;;;;;;5054659;28;20260;-87
2022/03/05 09:44:52;;;;;;;16.13;9.17;;;1.20;99.90;;;;;;5051301;28;20184;-85
2022/03/05 09:47:20;;;;;;;15.73;7.43;;;3.60;99.90;;;;;;5036047;28;20200;-84
2022/03/05 09:49:46;;;;;;;12.57;8.33;;;1.20;99.90;;;;;;5053290;28;20275;-89
2022/03/05 09:52:12;;;;;;;18.03;11.13;;;1.20;99.90;;;;;;5058077;28;20200;-88
2022/03/05 09:54:38;;;;;;;25.73;13.27;;;2.20;99.90;;;;;;5054942;28;20242;-85
2022/03/05 09:57:12;;;;;;;27.77;12.87;;;1.30;99.90;;;;;;5036809;28;20266;-87
2022/03/05 09:59:38;;;;;;;30.23;16.17;;;1.40;99.90;;;;;;5059850;28;20198;-86
2022/03/05 10:02:05;;;;;;;41.10;22.23;;;1.40;99.90;;;;;;5047529;28;20188;-84
2022/03/05 10:04:32;;;;;;;17.70;10.13;;;3.50;99.90;;;;;;5046392;28;20183;-89
2022/03/05 10:07:07;;;;;;;48.97;25.57;;;1.40;99.90;;;;;;5045694;28;20684;-86
2022/03/05 10:09:33;;;;;;;65.97;35.10;;;1.40;99.90;;;;;;5050195;28;20569;-84
2022/03/05 10:12:00;;;;;;;61.53;32.93;;;1.50;99.90;;;;;;5045059;28;20187;-84
2022/03/05 10:14:26;;;;;;;15.97;8.93;;;1.40;99.90;;;;;;5030395;28;20187;-84
2022/03/05 10:17:04;;;;;;;31.63;19.97;;;3.60;99.90;;;;;;5048606;28;20189;-88
2022/03/05 10:19:29;;;;;;;16.60;9.83;;;1.30;99.90;;;;;;5043813;28;20210;-84
2022/03/05 10:21:59;;;;;;;11.20;7.33;;;1.30;99.90;;;;;;5026670;28;20234;-84
2022/03/05 10:24:36;;;;;;;13.17;8.03;;;1.60;99.90;;;;;;5025921;28;20187;-85
2022/03/05 10:27:04;;;;;;;15.23;7.63;;;2.90;99.90;;;;;;5029828;28;20196;-84
2022/03/05 10:29:35;;;;;;;15.97;7.17;;;1.40;99.90;;;;;;5050599;28;20645;-86
2022/03/05 10:32:04;;;;;;;12.30;6.80;;;2.50;99.90;;;;;;5040456;28;20176;-85
2022/03/05 10:34:52;;;;;;;12.87;7.53;;;1.30;99.90;;;;;;5031655;28;20241;-84
2022/03/05 10:37:20;;;;;;;33.70;14.50;;;1.20;99.90;;;;;;5047562;28;20195;-86
2022/03/05 10:39:47;;;;;;;20.80;10.60;;;1.30;99.90;;;;;;5029738;28;20227;-87
2022/03/05 10:42:24;;;;;;;23.90;11.43;;;1.30;99.90;;;;;;5027629;28;20187;-86
2022/03/05 10:45:08;;;;;;;144.07;55.40;;;1.50;99.90;;;;;;5049330;28;20180;-85
2022/03/05 10:47:47;;;;;;;146.53;43.07;;;1.40;99.90;;;;;;5052122;28;20191;-86
2022/03/05 10:50:28;;;;;;;78.57;27.80;;;1.50;99.90;;;;;;5031035;28;20185;-85
2022/03/05 10:53:01;;;;;;;42.00;15.17;;;1.50;99.90;;;;;;5048079;28;20293;-86
2022/03/05 10:55:34;;;;;;;33.43;13.87;;;1.50;99.90;;;;;;5040146;28;20309;-86
2022/03/05 10:58:03;;;;;;;108.70;33.83;;;1.50;99.90;;;;;;5025981;28;20276;-89
2022/03/05 11:00:30;;;;;;;50.10;19.53;;;1.70;99.90;;;;;;5030849;28;20235;-84
2022/03/05 11:03:00;;;;;;;24.17;9.83;;;1.60;99.90;;;;;;5041187;28;20265;-86
2022/03/05 11:05:26;;;;;;;15.63;8.63;;;1.70;99.90;;;;;;5048653;28;20214;-85
2022/03/05 11:07:54;;;;;;;16.47;7.63;;;1.60;99.90;;;;;;5049806;28;20226;-84
2022/03/05 11:10:23;;;;;;;20.10;9.77;;;1.60;99.90;;;;;;5049692;28;20198;-84
2022/03/05 11:12:56;;;;;;;18.27;8.50;;;1.80;99.90;;;;;;5029914;28;20189;-83
2022/03/05 11:15:23;;;;;;;31.30;13.50;;;2.70;99.90;;;;;;5047283;28;20609;-85
2022/03/05 11:17:49;;;;;;;86.33;26.80;;;1.70;99.90;;;;;;5030744;28;20652;-85
2022/03/05 11:20:15;;;;;;;19.40;9.30;;;2.80;99.90;;;;;;5032665;28;20215;-85
2022/03/05 11:22:44;;;;;;;25.43;12.17;;;1.80;99.90;;;;;;5032374;28;20191;-84
2022/03/05 11:25:15;;;;;;;12.90;7.33;;;3.20;99.90;;;;;;5047936;28;20180;-84
2022/03/05 11:27:57;;;;;;;9.40;5.80;;;1.80;99.90;;;;;;5046533;28;20184;-83
2022/03/05 11:30:23;;;;;;;11.77;5.63;;;1.80;99.90;;;;;;5049227;28;20191;-83
2022/03/05 11:32:48;;;;;;;9.80;5.13;;;1.60;99.90;;;;;;5040200;28;20183;-84
2022/03/05 11:35:32;;;;;;;10.40;5.50;;;1.50;99.90;;;;;;5031997;28;20226;-84
2022/03/05 11:37:59;;;;;;;15.10;7.03;;;1.50;99.90;;;;;;5039982;28;20258;-84
2022/03/05 11:40:37;;;;;;;15.17;6.70;;;1.40;99.90;;;;;;5034391;28;20209;-85
2022/03/05 11:43:18;;;;;;;12.83;6.90;;;2.60;99.90;;;;;;5049445;28;20269;-84
2022/03/05 11:45:50;;;;;;;17.80;9.00;;;1.50;99.90;;;;;;5050201;28;20188;-86
2022/03/05 11:48:24;;;;;;;18.87;10.53;;;1.70;99.90;;;;;;5048653;28;20556;-83
2022/03/05 11:50:55;;;;;;;21.93;9.93;;;1.70;99.90;;;;;;5036691;28;20179;-85
2022/03/05 11:53:22;;;;;;;24.70;10.23;;;;;;;;;;5017319;28;20658;-84
2022/03/05 11:55:48;;;;;;;16.87;9.87;;;1.70;99.90;;;;;;5036139;28;20207;-90
2022/03/05 11:58:13;;;;;;;14.40;8.20;;;3.30;99.90;;;;;;5036347;28;20203;-88
2022/03/05 12:00:49;;;;;;;16.33;8.20;;;2.90;99.90;;;;;;5052799;28;20219;-87
2022/03/05 12:03:38;;;;;;;43.40;15.07;;;1.80;99.90;;;;;;5038127;28;20187;-85
2022/03/05 12:06:04;;;;;;;13.70;6.57;;;1.90;99.90;;;;;;5055522;28;20180;-83
2022/03/05 12:08:30;;;;;;;12.83;6.17;;;1.90;99.90;;;;;;5035625;28;20560;-83
2022/03/05 12:11:16;;;;;;;9.87;5.40;;;3.20;99.90;;;;;;5048140;28;20274;-84
2022/03/05 12:13:58;;;;;;;14.90;7.73;;;2.80;99.90;;;;;;5059120;28;20178;-85
2022/03/05 12:16:29;;;;;;;30.50;17.47;;;1.90;99.90;;;;;;5048769;28;20175;-84
2022/03/05 12:18:59;;;;;;;16.33;7.37;;;2.00;99.90;;;;;;5046770;28;20199;-83
2022/03/05 12:21:30;;;;;;;19.03;8.07;;;2.10;99.90;;;;;;5029561;28;20296;-82
2022/03/05 12:24:08;;;;;;;23.00;8.50;;;2.20;99.90;;;;;;5044884;28;20264;-84
2022/03/05 12:26:50;;;;;;;28.23;12.47;;;2.20;99.90;;;;;;5054645;28;20668;-84
2022/03/05 12:29:16;;;;;;;24.30;9.97;;;2.30;99.90;;;;;;5036668;28;20171;-83
2022/03/05 12:31:43;;;;;;;42.63;16.87;;;2.40;99.90;;;;;;5050948;28;20184;-83
2022/03/05 12:34:09;;;;;;;28.77;12.47;;;2.40;99.90;;;;;;5024396;28;20188;-90
2022/03/05 12:36:44;;;;;;;56.57;22.90;;;2.40;99.90;;;;;;5031803;28;20218;-83
2022/03/05 12:39:11;;;;;;;21.07;8.80;;;2.50;99.90;;;;;;5046899;28;20177;-83
2022/03/05 12:41:37;;;;;;;28.70;10.50;;;2.50;99.90;;;;;;5014512;28;20266;-84